This is the latest recevied weather packets stored in our database for station/object WX5RP. If no packets are shown the sender has not sent any weather packets the latest 10 day(s).
| Time | Temp. | Humidity | Pressure | Rain* | Wind** | Luminosity | Snow |
|---|---|---|---|---|---|---|---|
| 1778298317 | 12.22° C | 41% | 1020.8 hPa | 0 mm | - | 0 W/m² | - |
| 1778297718 | 12.22° C | 45% | 1020.1 hPa | 0 mm | - | 0 W/m² | - |
| 1778297117 | 12.78° C | 42% | 1019.6 hPa | 0 mm | - | 0 W/m² | - |
| 1778296517 | 14.44° C | 37% | 1019.9 hPa | 0 mm | - | 4 W/m² | - |
| 1778295917 | 15.56° C | 32% | 1019.8 hPa | 0 mm | - | 12 W/m² | - |
| 1778295317 | 15.56° C | 31% | 1019.4 hPa | 0 mm | - | 22 W/m² | - |
| 1778294717 | 16.11° C | 32% | 1019.4 hPa | 0 mm | - | 30 W/m² | - |
| 1778294117 | 17.22° C | 30% | 1018.8 hPa | 0 mm | - | 36 W/m² | - |
| 1778293517 | 17.22° C | 31% | 1018.4 hPa | 0 mm | - | 44 W/m² | - |
| 1778292917 | 18.33° C | 28% | 1018.4 hPa | 0 mm | - | 59 W/m² | - |
| 1778292317 | 18.89° C | 26% | 1019.5 hPa | 0 mm | - | 106 W/m² | - |
| 1778291717 | 18.89° C | 27% | 1019.1 hPa | 0 mm | - | 151 W/m² | - |
| 1778291116 | 19.44° C | 26% | 1019.1 hPa | 0 mm | - | 157 W/m² | - |
| 1778290516 | 19.44° C | 25% | 1018.8 hPa | 0 mm | - | 149 W/m² | - |
| 1778289916 | 20° C | 23% | 1018.4 hPa | 0 mm | - | 140 W/m² | - |
| 1778289316 | 20° C | 24% | 1018.2 hPa | 0 mm | - | 98 W/m² | - |
| 1778288717 | 20.56° C | 23% | 1019 hPa | 0 mm | - | 241 W/m² | - |
| 1778288117 | 21.11° C | 21% | 1019.3 hPa | 0 mm | - | 202 W/m² | - |
| 1778287516 | 20.56° C | 23% | 1019.4 hPa | 0 mm | - | 197 W/m² | - |
| 1778286916 | 21.11° C | 22% | 1019.6 hPa | 0 mm | - | 365 W/m² | - |
| 1778286316 | 21.11° C | 25% | 1019.4 hPa | 0 mm | - | 469 W/m² | - |
| 1778285716 | 21.67° C | 23% | 1019.3 hPa | 0 mm | - | 468 W/m² | - |
| 1778285116 | 21.67° C | 23% | 1018.9 hPa | 0 mm | - | 396 W/m² | - |
| 1778284516 | 21.67° C | 24% | 1018.9 hPa | 0 mm | - | 509 W/m² | - |
| 1778283916 | 22.22° C | 24% | 1018.9 hPa | 0 mm | - | 542 W/m² | - |
* Rain latest hour (hover to see other rain measurements)
** Current wind speed in m/s (hover to see current wind gust speed)